sensor_id;sensor_type;location;lat;lon;timestamp;P1;durP1;ratioP1;P2;durP2;ratioP2
81815;SDS011;71249;52.084;5.304;2024-02-23T00:02:37;5.9;;;1.7;;
81815;SDS011;71249;52.084;5.304;2024-02-23T00:04:13;6.8;;;1.8;;
81815;SDS011;71249;52.084;5.304;2024-02-23T00:05:50;12.1;;;2.6;;
81815;SDS011;71249;52.084;5.304;2024-02-23T00:09:02;9.31;;;1.8;;
81815;SDS011;71249;52.084;5.304;2024-02-23T00:10:38;11.3;;;2.4;;
81815;SDS011;71249;52.084;5.304;2024-02-23T00:12:14;13.5;;;2.5;;
81815;SDS011;71249;52.084;5.304;2024-02-23T00:15:26;11.8;;;2.31;;
81815;SDS011;71249;52.084;5.304;2024-02-23T00:17:03;12.2;;;2.8;;
81815;SDS011;71249;52.084;5.304;2024-02-23T00:18:39;12.4;;;3.0;;
81815;SDS011;71249;52.084;5.304;2024-02-23T00:20:15;14.6;;;2.6;;
81815;SDS011;71249;52.084;5.304;2024-02-23T00:23:27;12.5;;;2.7;;
81815;SDS011;71249;52.084;5.304;2024-02-23T00:25:03;10.7;;;2.21;;
81815;SDS011;71249;52.084;5.304;2024-02-23T00:26:40;10.9;;;2.8;;
81815;SDS011;71249;52.084;5.304;2024-02-23T00:29:53;12.4;;;2.8;;
81815;SDS011;71249;52.084;5.304;2024-02-23T00:31:29;12.7;;;3.1;;
81815;SDS011;71249;52.084;5.304;2024-02-23T00:33:05;12.8;;;2.9;;
81815;SDS011;71249;52.084;5.304;2024-02-23T00:36:17;11.4;;;2.7;;
81815;SDS011;71249;52.084;5.304;2024-02-23T00:37:53;12.6;;;2.7;;
81815;SDS011;71249;52.084;5.304;2024-02-23T00:39:29;13.1;;;2.9;;
81815;SDS011;71249;52.084;5.304;2024-02-23T00:42:41;16.0;;;3.1;;
81815;SDS011;71249;52.084;5.304;2024-02-23T00:44:17;12.0;;;2.5;;
81815;SDS011;71249;52.084;5.304;2024-02-23T00:45:57;15.8;;;3.0;;
81815;SDS011;71249;52.084;5.304;2024-02-23T00:47:33;14.9;;;3.2;;
81815;SDS011;71249;52.084;5.304;2024-02-23T00:50:45;12.3;;;2.7;;
81815;SDS011;71249;52.084;5.304;2024-02-23T00:52:21;13.8;;;2.7;;
81815;SDS011;71249;52.084;5.304;2024-02-23T00:53:57;17.8;;;2.9;;
81815;SDS011;71249;52.084;5.304;2024-02-23T00:57:09;10.8;;;2.6;;
81815;SDS011;71249;52.084;5.304;2024-02-23T00:58:45;12.0;;;2.8;;
81815;SDS011;71249;52.084;5.304;2024-02-23T01:00:22;12.3;;;2.6;;
81815;SDS011;71249;52.084;5.304;2024-02-23T01:03:34;14.6;;;2.7;;
81815;SDS011;71249;52.084;5.304;2024-02-23T01:05:10;11.6;;;2.5;;
81815;SDS011;71249;52.084;5.304;2024-02-23T01:06:46;12.7;;;2.5;;
81815;SDS011;71249;52.084;5.304;2024-02-23T01:08:25;10.4;;;2.31;;
81815;SDS011;71249;52.084;5.304;2024-02-23T01:11:36;14.1;;;2.7;;
81815;SDS011;71249;52.084;5.304;2024-02-23T01:13:12;9.4;;;2.1;;
81815;SDS011;71249;52.084;5.304;2024-02-23T01:14:48;6.4;;;1.9;;
81815;SDS011;71249;52.084;5.304;2024-02-23T01:18:01;7.4;;;1.6;;
81815;SDS011;71249;52.084;5.304;2024-02-23T01:19:40;7.2;;;1.5;;
81815;SDS011;71249;52.084;5.304;2024-02-23T01:21:17;5.11;;;1.4;;
81815;SDS011;71249;52.084;5.304;2024-02-23T01:24:29;6.8;;;1.4;;
81815;SDS011;71249;52.084;5.304;2024-02-23T01:26:05;7.7;;;1.3;;
81815;SDS011;71249;52.084;5.304;2024-02-23T01:27:41;10.3;;;1.8;;
81815;SDS011;71249;52.084;5.304;2024-02-23T01:29:17;7.2;;;1.7;;
81815;SDS011;71249;52.084;5.304;2024-02-23T01:32:30;6.2;;;1.9;;
81815;SDS011;71249;52.084;5.304;2024-02-23T01:34:06;5.11;;;1.4;;
81815;SDS011;71249;52.084;5.304;2024-02-23T01:35:42;5.11;;;1.6;;
81815;SDS011;71249;52.084;5.304;2024-02-23T01:38:54;5.3;;;1.3;;
81815;SDS011;71249;52.084;5.304;2024-02-23T01:40:30;7.3;;;1.4;;
81815;SDS011;71249;52.084;5.304;2024-02-23T01:42:07;7.1;;;1.5;;
81815;SDS011;71249;52.084;5.304;2024-02-23T01:45:20;6.1;;;2.0;;
81815;SDS011;71249;52.084;5.304;2024-02-23T01:46:56;8.4;;;2.0;;
81815;SDS011;71249;52.084;5.304;2024-02-23T01:48:32;6.9;;;1.9;;
81815;SDS011;71249;52.084;5.304;2024-02-23T01:51:48;6.8;;;2.4;;
81815;SDS011;71249;52.084;5.304;2024-02-23T01:53:24;6.8;;;2.4;;
81815;SDS011;71249;52.084;5.304;2024-02-23T01:55:01;8.4;;;2.5;;
81815;SDS011;71249;52.084;5.304;2024-02-23T01:56:37;9.31;;;2.6;;
81815;SDS011;71249;52.084;5.304;2024-02-23T01:59:51;10.1;;;2.4;;
81815;SDS011;71249;52.084;5.304;2024-02-23T02:01:27;10.21;;;2.6;;
81815;SDS011;71249;52.084;5.304;2024-02-23T02:03:03;9.71;;;2.4;;
81815;SDS011;71249;52.084;5.304;2024-02-23T02:06:16;9.71;;;2.6;;
81815;SDS011;71249;52.084;5.304;2024-02-23T02:07:53;11.5;;;2.8;;
81815;SDS011;71249;52.084;5.304;2024-02-23T02:09:31;8.5;;;2.4;;
81815;SDS011;71249;52.084;5.304;2024-02-23T02:11:08;10.6;;;2.7;;
81815;SDS011;71249;52.084;5.304;2024-02-23T02:14:20;10.1;;;2.4;;
81815;SDS011;71249;52.084;5.304;2024-02-23T02:16:00;10.1;;;2.4;;
81815;SDS011;71249;52.084;5.304;2024-02-23T02:17:37;10.21;;;2.7;;
81815;SDS011;71249;52.084;5.304;2024-02-23T02:20:50;9.21;;;2.4;;
81815;SDS011;71249;52.084;5.304;2024-02-23T02:22:27;10.21;;;2.5;;
81815;SDS011;71249;52.084;5.304;2024-02-23T02:24:03;8.9;;;2.6;;
81815;SDS011;71249;52.084;5.304;2024-02-23T02:27:16;8.4;;;2.6;;
81815;SDS011;71249;52.084;5.304;2024-02-23T02:28:52;8.6;;;2.6;;
81815;SDS011;71249;52.084;5.304;2024-02-23T02:30:28;9.9;;;2.31;;
81815;SDS011;71249;52.084;5.304;2024-02-23T02:32:05;8.71;;;2.6;;
81815;SDS011;71249;52.084;5.304;2024-02-23T02:35:18;8.6;;;2.4;;
81815;SDS011;71249;52.084;5.304;2024-02-23T02:36:54;10.7;;;2.5;;
81815;SDS011;71249;52.084;5.304;2024-02-23T02:38:30;7.1;;;2.21;;
81815;SDS011;71249;52.084;5.304;2024-02-23T02:41:43;12.0;;;2.7;;
81815;SDS011;71249;52.084;5.304;2024-02-23T02:43:19;9.31;;;2.4;;
81815;SDS011;71249;52.084;5.304;2024-02-23T02:44:55;12.4;;;3.0;;
81815;SDS011;71249;52.084;5.304;2024-02-23T02:48:08;12.5;;;3.2;;
81815;SDS011;71249;52.084;5.304;2024-02-23T02:49:44;12.1;;;3.0;;
81815;SDS011;71249;52.084;5.304;2024-02-23T02:51:20;11.6;;;2.5;;
81815;SDS011;71249;52.084;5.304;2024-02-23T02:52:56;10.7;;;2.8;;
81815;SDS011;71249;52.084;5.304;2024-02-23T02:56:08;9.5;;;2.4;;
81815;SDS011;71249;52.084;5.304;2024-02-23T02:57:47;9.5;;;2.4;;
81815;SDS011;71249;52.084;5.304;2024-02-23T02:59:23;9.4;;;2.31;;
81815;SDS011;71249;52.084;5.304;2024-02-23T03:02:35;9.0;;;2.5;;
81815;SDS011;71249;52.084;5.304;2024-02-23T03:04:12;16.8;;;3.4;;
81815;SDS011;71249;52.084;5.304;2024-02-23T03:05:48;11.8;;;2.7;;
81815;SDS011;71249;52.084;5.304;2024-02-23T03:09:00;14.8;;;3.2;;
81815;SDS011;71249;52.084;5.304;2024-02-23T03:10:36;14.1;;;3.2;;
81815;SDS011;71249;52.084;5.304;2024-02-23T03:12:12;9.21;;;3.0;;
81815;SDS011;71249;52.084;5.304;2024-02-23T03:15:24;10.1;;;2.7;;
81815;SDS011;71249;52.084;5.304;2024-02-23T03:17:00;8.0;;;2.6;;
81815;SDS011;71249;52.084;5.304;2024-02-23T03:18:36;11.1;;;2.6;;
81815;SDS011;71249;52.084;5.304;2024-02-23T03:20:15;14.5;;;2.9;;
81815;SDS011;71249;52.084;5.304;2024-02-23T03:23:28;8.4;;;2.21;;
81815;SDS011;71249;52.084;5.304;2024-02-23T03:25:04;11.3;;;3.3;;
81815;SDS011;71249;52.084;5.304;2024-02-23T03:26:41;9.31;;;2.31;;
81815;SDS011;71249;52.084;5.304;2024-02-23T03:29:53;10.9;;;2.9;;
81815;SDS011;71249;52.084;5.304;2024-02-23T03:31:32;8.2;;;2.5;;
81815;SDS011;71249;52.084;5.304;2024-02-23T03:33:08;9.9;;;2.5;;
81815;SDS011;71249;52.084;5.304;2024-02-23T03:36:21;8.4;;;2.31;;
81815;SDS011;71249;52.084;5.304;2024-02-23T03:37:57;7.5;;;2.31;;
81815;SDS011;71249;52.084;5.304;2024-02-23T03:39:33;11.6;;;3.0;;
81815;SDS011;71249;52.084;5.304;2024-02-23T03:41:09;7.6;;;2.7;;
81815;SDS011;71249;52.084;5.304;2024-02-23T03:44:24;10.9;;;2.4;;
81815;SDS011;71249;52.084;5.304;2024-02-23T03:46:00;12.3;;;2.9;;
81815;SDS011;71249;52.084;5.304;2024-02-23T03:47:37;9.5;;;2.8;;
81815;SDS011;71249;52.084;5.304;2024-02-23T03:50:50;10.8;;;2.4;;
81815;SDS011;71249;52.084;5.304;2024-02-23T03:52:26;8.2;;;2.6;;
81815;SDS011;71249;52.084;5.304;2024-02-23T03:54:05;9.0;;;2.5;;
81815;SDS011;71249;52.084;5.304;2024-02-23T03:55:41;10.8;;;2.8;;
81815;SDS011;71249;52.084;5.304;2024-02-23T03:58:52;14.0;;;2.7;;
81815;SDS011;71249;52.084;5.304;2024-02-23T04:00:28;7.7;;;2.4;;
81815;SDS011;71249;52.084;5.304;2024-02-23T04:02:04;10.21;;;2.7;;
81815;SDS011;71249;52.084;5.304;2024-02-23T04:05:17;10.0;;;2.9;;
81815;SDS011;71249;52.084;5.304;2024-02-23T04:06:53;10.1;;;2.7;;
81815;SDS011;71249;52.084;5.304;2024-02-23T04:08:29;10.1;;;2.7;;
81815;SDS011;71249;52.084;5.304;2024-02-23T04:11:42;10.6;;;2.5;;
81815;SDS011;71249;52.084;5.304;2024-02-23T04:13:18;8.4;;;2.7;;
81815;SDS011;71249;52.084;5.304;2024-02-23T04:14:55;10.7;;;2.6;;
81815;SDS011;71249;52.084;5.304;2024-02-23T04:18:07;6.7;;;2.4;;
81815;SDS011;71249;52.084;5.304;2024-02-23T04:19:43;9.9;;;2.5;;
81815;SDS011;71249;52.084;5.304;2024-02-23T04:21:19;7.7;;;2.4;;
81815;SDS011;71249;52.084;5.304;2024-02-23T04:22:56;7.5;;;2.31;;
81815;SDS011;71249;52.084;5.304;2024-02-23T04:26:08;9.6;;;2.5;;
81815;SDS011;71249;52.084;5.304;2024-02-23T04:27:44;8.2;;;2.31;;
81815;SDS011;71249;52.084;5.304;2024-02-23T04:29:20;7.7;;;2.21;;
81815;SDS011;71249;52.084;5.304;2024-02-23T04:32:32;6.8;;;2.4;;
81815;SDS011;71249;52.084;5.304;2024-02-23T04:34:08;9.5;;;2.5;;
81815;SDS011;71249;52.084;5.304;2024-02-23T04:35:44;10.0;;;2.8;;
81815;SDS011;71249;52.084;5.304;2024-02-23T04:38:59;7.9;;;2.6;;
81815;SDS011;71249;52.084;5.304;2024-02-23T04:40:35;7.4;;;2.6;;
81815;SDS011;71249;52.084;5.304;2024-02-23T04:42:11;9.21;;;2.31;;
81815;SDS011;71249;52.084;5.304;2024-02-23T04:43:47;9.1;;;2.5;;
81815;SDS011;71249;52.084;5.304;2024-02-23T04:46:59;11.3;;;2.6;;
81815;SDS011;71249;52.084;5.304;2024-02-23T04:48:35;10.8;;;2.9;;
81815;SDS011;71249;52.084;5.304;2024-02-23T04:50:12;8.9;;;2.4;;
81815;SDS011;71249;52.084;5.304;2024-02-23T04:53:24;8.6;;;2.4;;
81815;SDS011;71249;52.084;5.304;2024-02-23T04:55:00;10.4;;;2.7;;
81815;SDS011;71249;52.084;5.304;2024-02-23T04:56:36;9.5;;;2.8;;
81815;SDS011;71249;52.084;5.304;2024-02-23T04:59:48;7.9;;;2.5;;
81815;SDS011;71249;52.084;5.304;2024-02-23T05:01:24;12.9;;;3.1;;
81815;SDS011;71249;52.084;5.304;2024-02-23T05:03:00;9.21;;;2.31;;
81815;SDS011;71249;52.084;5.304;2024-02-23T05:06:16;10.5;;;2.5;;
81815;SDS011;71249;52.084;5.304;2024-02-23T05:07:52;12.6;;;2.9;;
81815;SDS011;71249;52.084;5.304;2024-02-23T05:09:28;7.8;;;2.4;;
81815;SDS011;71249;52.084;5.304;2024-02-23T05:11:04;11.2;;;3.0;;
81815;SDS011;71249;52.084;5.304;2024-02-23T05:14:16;9.6;;;2.4;;
81815;SDS011;71249;52.084;5.304;2024-02-23T05:15:56;8.6;;;2.21;;
81815;SDS011;71249;52.084;5.304;2024-02-23T05:17:31;7.9;;;2.31;;
81815;SDS011;71249;52.084;5.304;2024-02-23T05:20:43;9.9;;;2.7;;
81815;SDS011;71249;52.084;5.304;2024-02-23T05:22:19;11.8;;;2.7;;
81815;SDS011;71249;52.084;5.304;2024-02-23T05:23:55;11.3;;;2.7;;
81815;SDS011;71249;52.084;5.304;2024-02-23T05:27:07;9.81;;;2.7;;
81815;SDS011;71249;52.084;5.304;2024-02-23T05:28:43;9.31;;;2.4;;
81815;SDS011;71249;52.084;5.304;2024-02-23T05:30:19;9.6;;;2.8;;
81815;SDS011;71249;52.084;5.304;2024-02-23T05:31:56;8.4;;;2.7;;
81815;SDS011;71249;52.084;5.304;2024-02-23T05:35:08;11.5;;;2.9;;
81815;SDS011;71249;52.084;5.304;2024-02-23T05:36:45;8.31;;;2.5;;
81815;SDS011;71249;52.084;5.304;2024-02-23T05:38:22;7.4;;;2.6;;
81815;SDS011;71249;52.084;5.304;2024-02-23T05:41:40;9.0;;;3.3;;
81815;SDS011;71249;52.084;5.304;2024-02-23T05:43:16;8.31;;;2.9;;
81815;SDS011;71249;52.084;5.304;2024-02-23T05:44:52;9.81;;;3.3;;
81815;SDS011;71249;52.084;5.304;2024-02-23T05:48:04;9.6;;;3.1;;
81815;SDS011;71249;52.084;5.304;2024-02-23T05:49:40;7.4;;;2.7;;
81815;SDS011;71249;52.084;5.304;2024-02-23T05:51:16;9.81;;;2.9;;
81815;SDS011;71249;52.084;5.304;2024-02-23T05:52:52;6.7;;;2.8;;
81815;SDS011;71249;52.084;5.304;2024-02-23T05:56:05;10.3;;;3.0;;
81815;SDS011;71249;52.084;5.304;2024-02-23T05:57:41;8.6;;;3.2;;
81815;SDS011;71249;52.084;5.304;2024-02-23T05:59:17;10.8;;;3.5;;
81815;SDS011;71249;52.084;5.304;2024-02-23T06:02:29;8.9;;;2.8;;
81815;SDS011;71249;52.084;5.304;2024-02-23T06:04:05;6.7;;;2.6;;
81815;SDS011;71249;52.084;5.304;2024-02-23T06:05:41;9.31;;;3.5;;
81815;SDS011;71249;52.084;5.304;2024-02-23T06:08:53;6.5;;;2.7;;
81815;SDS011;71249;52.084;5.304;2024-02-23T06:10:29;7.5;;;2.7;;
81815;SDS011;71249;52.084;5.304;2024-02-23T06:12:06;10.3;;;3.0;;
81815;SDS011;71249;52.084;5.304;2024-02-23T06:15:24;9.31;;;2.5;;
81815;SDS011;71249;52.084;5.304;2024-02-23T06:17:00;9.6;;;2.4;;
81815;SDS011;71249;52.084;5.304;2024-02-23T06:18:36;6.8;;;2.8;;
81815;SDS011;71249;52.084;5.304;2024-02-23T06:20:12;7.9;;;2.5;;
81815;SDS011;71249;52.084;5.304;2024-02-23T06:23:24;7.8;;;2.6;;
81815;SDS011;71249;52.084;5.304;2024-02-23T06:25:00;9.5;;;2.31;;
81815;SDS011;71249;52.084;5.304;2024-02-23T06:26:38;9.0;;;2.7;;
81815;SDS011;71249;52.084;5.304;2024-02-23T06:29:52;9.4;;;2.31;;
81815;SDS011;71249;52.084;5.304;2024-02-23T06:31:28;6.5;;;2.1;;
81815;SDS011;71249;52.084;5.304;2024-02-23T06:33:04;7.3;;;2.5;;
81815;SDS011;71249;52.084;5.304;2024-02-23T06:34:41;8.1;;;2.6;;
81815;SDS011;71249;52.084;5.304;2024-02-23T06:37:54;6.0;;;2.1;;
81815;SDS011;71249;52.084;5.304;2024-02-23T06:39:30;5.9;;;2.0;;
81815;SDS011;71249;52.084;5.304;2024-02-23T06:41:06;7.8;;;2.1;;
81815;SDS011;71249;52.084;5.304;2024-02-23T06:44:18;9.5;;;2.7;;
81815;SDS011;71249;52.084;5.304;2024-02-23T06:45:54;5.4;;;2.0;;
81815;SDS011;71249;52.084;5.304;2024-02-23T06:47:33;7.3;;;2.21;;
81815;SDS011;71249;52.084;5.304;2024-02-23T06:50:46;7.6;;;2.21;;
81815;SDS011;71249;52.084;5.304;2024-02-23T06:52:22;4.91;;;1.9;;
81815;SDS011;71249;52.084;5.304;2024-02-23T06:53:58;7.8;;;2.21;;
81815;SDS011;71249;52.084;5.304;2024-02-23T06:57:10;6.0;;;1.8;;
81815;SDS011;71249;52.084;5.304;2024-02-23T06:58:46;7.5;;;2.0;;
81815;SDS011;71249;52.084;5.304;2024-02-23T07:00:22;8.5;;;2.6;;
81815;SDS011;71249;52.084;5.304;2024-02-23T07:01:58;9.9;;;2.31;;
81815;SDS011;71249;52.084;5.304;2024-02-23T07:05:10;8.0;;;2.1;;
81815;SDS011;71249;52.084;5.304;2024-02-23T07:06:47;8.1;;;2.0;;
81815;SDS011;71249;52.084;5.304;2024-02-23T07:08:23;5.7;;;2.0;;
81815;SDS011;71249;52.084;5.304;2024-02-23T07:11:35;8.4;;;2.4;;
81815;SDS011;71249;52.084;5.304;2024-02-23T07:13:11;8.2;;;2.21;;
81815;SDS011;71249;52.084;5.304;2024-02-23T07:14:47;8.6;;;2.21;;
81815;SDS011;71249;52.084;5.304;2024-02-23T07:18:00;6.8;;;2.21;;
81815;SDS011;71249;52.084;5.304;2024-02-23T07:19:36;9.0;;;2.6;;
81815;SDS011;71249;52.084;5.304;2024-02-23T07:21:12;9.31;;;2.1;;
81815;SDS011;71249;52.084;5.304;2024-02-23T07:22:49;8.2;;;1.9;;
81815;SDS011;71249;52.084;5.304;2024-02-23T07:26:01;6.4;;;2.0;;
81815;SDS011;71249;52.084;5.304;2024-02-23T07:27:37;5.7;;;1.8;;
81815;SDS011;71249;52.084;5.304;2024-02-23T07:29:13;5.4;;;1.8;;
81815;SDS011;71249;52.084;5.304;2024-02-23T07:32:25;9.5;;;2.31;;
81815;SDS011;71249;52.084;5.304;2024-02-23T07:34:01;7.4;;;1.9;;
81815;SDS011;71249;52.084;5.304;2024-02-23T07:35:38;7.4;;;2.0;;
81815;SDS011;71249;52.084;5.304;2024-02-23T07:38:50;6.9;;;2.0;;
81815;SDS011;71249;52.084;5.304;2024-02-23T07:40:26;7.3;;;2.1;;
81815;SDS011;71249;52.084;5.304;2024-02-23T07:42:02;7.3;;;1.8;;
81815;SDS011;71249;52.084;5.304;2024-02-23T07:45:14;6.8;;;1.9;;
81815;SDS011;71249;52.084;5.304;2024-02-23T07:46:50;8.2;;;2.21;;
81815;SDS011;71249;52.084;5.304;2024-02-23T07:48:26;8.0;;;2.1;;
81815;SDS011;71249;52.084;5.304;2024-02-23T07:50:02;7.0;;;1.7;;
81815;SDS011;71249;52.084;5.304;2024-02-23T07:53:14;6.6;;;2.4;;
81815;SDS011;71249;52.084;5.304;2024-02-23T07:54:51;8.4;;;2.9;;
81815;SDS011;71249;52.084;5.304;2024-02-23T07:56:27;5.7;;;2.31;;
81815;SDS011;71249;52.084;5.304;2024-02-23T07:59:40;7.6;;;2.31;;
81815;SDS011;71249;52.084;5.304;2024-02-23T08:01:16;8.5;;;2.7;;
81815;SDS011;71249;52.084;5.304;2024-02-23T08:02:52;7.8;;;2.21;;
81815;SDS011;71249;52.084;5.304;2024-02-23T08:06:07;9.31;;;2.21;;
81815;SDS011;71249;52.084;5.304;2024-02-23T08:07:43;9.71;;;2.21;;
81815;SDS011;71249;52.084;5.304;2024-02-23T08:09:20;8.2;;;2.31;;
81815;SDS011;71249;52.084;5.304;2024-02-23T08:10:56;7.5;;;2.7;;
81815;SDS011;71249;52.084;5.304;2024-02-23T08:14:08;9.71;;;2.8;;
81815;SDS011;71249;52.084;5.304;2024-02-23T08:15:45;7.9;;;2.1;;
81815;SDS011;71249;52.084;5.304;2024-02-23T08:17:24;8.81;;;2.1;;
81815;SDS011;71249;52.084;5.304;2024-02-23T08:20:36;8.81;;;2.6;;
81815;SDS011;71249;52.084;5.304;2024-02-23T08:22:12;8.81;;;2.6;;
81815;SDS011;71249;52.084;5.304;2024-02-23T08:23:48;7.6;;;2.8;;
81815;SDS011;71249;52.084;5.304;2024-02-23T08:27:01;7.4;;;2.31;;
81815;SDS011;71249;52.084;5.304;2024-02-23T08:28:37;11.1;;;2.9;;
81815;SDS011;71249;52.084;5.304;2024-02-23T08:30:14;10.6;;;2.6;;
81815;SDS011;71249;52.084;5.304;2024-02-23T08:31:50;11.1;;;2.9;;
81815;SDS011;71249;52.084;5.304;2024-02-23T08:35:04;8.9;;;2.6;;
81815;SDS011;71249;52.084;5.304;2024-02-23T08:36:40;10.4;;;2.4;;
81815;SDS011;71249;52.084;5.304;2024-02-23T08:38:17;9.31;;;2.8;;
81815;SDS011;71249;52.084;5.304;2024-02-23T08:41:30;6.9;;;2.5;;
81815;SDS011;71249;52.084;5.304;2024-02-23T08:43:06;7.8;;;2.21;;
81815;SDS011;71249;52.084;5.304;2024-02-23T08:44:42;9.9;;;2.31;;
81815;SDS011;71249;52.084;5.304;2024-02-23T08:47:54;6.7;;;2.5;;
81815;SDS011;71249;52.084;5.304;2024-02-23T08:49:30;7.8;;;2.31;;
81815;SDS011;71249;52.084;5.304;2024-02-23T08:51:06;8.71;;;2.21;;
81815;SDS011;71249;52.084;5.304;2024-02-23T08:54:20;10.1;;;2.4;;
81815;SDS011;71249;52.084;5.304;2024-02-23T08:55:57;9.71;;;2.31;;
81815;SDS011;71249;52.084;5.304;2024-02-23T08:57:33;8.0;;;2.21;;
81815;SDS011;71249;52.084;5.304;2024-02-23T08:59:09;8.81;;;2.4;;
81815;SDS011;71249;52.084;5.304;2024-02-23T09:02:21;9.0;;;2.4;;
81815;SDS011;71249;52.084;5.304;2024-02-23T09:03:57;8.5;;;2.8;;
81815;SDS011;71249;52.084;5.304;2024-02-23T09:05:34;9.31;;;2.5;;
81815;SDS011;71249;52.084;5.304;2024-02-23T09:08:47;8.0;;;2.31;;
81815;SDS011;71249;52.084;5.304;2024-02-23T09:10:23;8.71;;;2.4;;
81815;SDS011;71249;52.084;5.304;2024-02-23T09:11:59;10.1;;;2.8;;
81815;SDS011;71249;52.084;5.304;2024-02-23T09:15:11;9.0;;;3.0;;
81815;SDS011;71249;52.084;5.304;2024-02-23T09:16:47;9.6;;;2.31;;
81815;SDS011;71249;52.084;5.304;2024-02-23T09:18:24;7.8;;;2.21;;
81815;SDS011;71249;52.084;5.304;2024-02-23T09:20:01;10.9;;;2.31;;
81815;SDS011;71249;52.084;5.304;2024-02-23T09:23:15;7.1;;;2.31;;
81815;SDS011;71249;52.084;5.304;2024-02-23T09:24:51;8.9;;;2.21;;
81815;SDS011;71249;52.084;5.304;2024-02-23T09:26:26;8.6;;;2.21;;
81815;SDS011;71249;52.084;5.304;2024-02-23T09:29:40;8.81;;;2.7;;
81815;SDS011;71249;52.084;5.304;2024-02-23T09:31:17;11.2;;;2.4;;
81815;SDS011;71249;52.084;5.304;2024-02-23T09:32:53;7.3;;;1.9;;
81815;SDS011;71249;52.084;5.304;2024-02-23T09:36:05;8.81;;;2.8;;
81815;SDS011;71249;52.084;5.304;2024-02-23T09:37:43;8.1;;;1.9;;
81815;SDS011;71249;52.084;5.304;2024-02-23T09:39:19;6.7;;;2.1;;
81815;SDS011;71249;52.084;5.304;2024-02-23T09:40:55;8.5;;;2.0;;
81815;SDS011;71249;52.084;5.304;2024-02-23T09:44:09;9.21;;;1.9;;
81815;SDS011;71249;52.084;5.304;2024-02-23T09:45:46;8.1;;;2.21;;
81815;SDS011;71249;52.084;5.304;2024-02-23T09:47:23;10.0;;;2.31;;
81815;SDS011;71249;52.084;5.304;2024-02-23T09:50:38;6.7;;;2.1;;
81815;SDS011;71249;52.084;5.304;2024-02-23T09:52:17;7.0;;;2.4;;
81815;SDS011;71249;52.084;5.304;2024-02-23T09:53:56;10.6;;;2.1;;
81815;SDS011;71249;52.084;5.304;2024-02-23T09:55:34;5.9;;;2.1;;
81815;SDS011;71249;52.084;5.304;2024-02-23T09:58:48;6.7;;;2.0;;
81815;SDS011;71249;52.084;5.304;2024-02-23T10:00:26;7.6;;;2.1;;
81815;SDS011;71249;52.084;5.304;2024-02-23T10:02:07;6.0;;;1.8;;
81815;SDS011;71249;52.084;5.304;2024-02-23T10:05:23;6.4;;;1.9;;
81815;SDS011;71249;52.084;5.304;2024-02-23T10:07:06;10.1;;;2.6;;
81815;SDS011;71249;52.084;5.304;2024-02-23T10:08:42;6.7;;;1.9;;
81815;SDS011;71249;52.084;5.304;2024-02-23T10:10:23;8.0;;;2.0;;
81815;SDS011;71249;52.084;5.304;2024-02-23T10:13:40;6.4;;;1.6;;
81815;SDS011;71249;52.084;5.304;2024-02-23T10:15:17;5.7;;;1.8;;
81815;SDS011;71249;52.084;5.304;2024-02-23T10:16:53;5.9;;;2.21;;
81815;SDS011;71249;52.084;5.304;2024-02-23T10:20:05;6.3;;;1.6;;
81815;SDS011;71249;52.084;5.304;2024-02-23T10:21:42;6.3;;;1.7;;
81815;SDS011;71249;52.084;5.304;2024-02-23T10:23:19;6.6;;;2.0;;
81815;SDS011;71249;52.084;5.304;2024-02-23T10:24:55;6.8;;;1.7;;
81815;SDS011;71249;52.084;5.304;2024-02-23T10:28:07;6.0;;;1.7;;
81815;SDS011;71249;52.084;5.304;2024-02-23T10:29:44;7.9;;;2.0;;
81815;SDS011;71249;52.084;5.304;2024-02-23T10:31:20;5.6;;;1.9;;
81815;SDS011;71249;52.084;5.304;2024-02-23T10:34:35;6.7;;;2.0;;
81815;SDS011;71249;52.084;5.304;2024-02-23T10:36:15;6.9;;;2.0;;
81815;SDS011;71249;52.084;5.304;2024-02-23T10:37:53;6.7;;;2.31;;
81815;SDS011;71249;52.084;5.304;2024-02-23T10:39:30;7.3;;;2.1;;
81815;SDS011;71249;52.084;5.304;2024-02-23T10:42:47;7.4;;;1.9;;
81815;SDS011;71249;52.084;5.304;2024-02-23T10:44:24;6.1;;;2.21;;
81815;SDS011;71249;52.084;5.304;2024-02-23T10:46:04;10.1;;;1.9;;
81815;SDS011;71249;52.084;5.304;2024-02-23T10:49:18;6.2;;;2.21;;
81815;SDS011;71249;52.084;5.304;2024-02-23T10:50:55;6.9;;;1.9;;
81815;SDS011;71249;52.084;5.304;2024-02-23T10:52:32;5.5;;;1.7;;
81815;SDS011;71249;52.084;5.304;2024-02-23T10:54:10;5.2;;;1.7;;
81815;SDS011;71249;52.084;5.304;2024-02-23T10:57:32;5.0;;;2.0;;
81815;SDS011;71249;52.084;5.304;2024-02-23T10:59:10;6.8;;;2.0;;
81815;SDS011;71249;52.084;5.304;2024-02-23T11:00:46;6.1;;;1.8;;
81815;SDS011;71249;52.084;5.304;2024-02-23T11:04:03;4.2;;;1.6;;
81815;SDS011;71249;52.084;5.304;2024-02-23T11:05:40;6.5;;;2.5;;
81815;SDS011;71249;52.084;5.304;2024-02-23T11:07:18;5.8;;;2.1;;
81815;SDS011;71249;52.084;5.304;2024-02-23T11:09:04;6.0;;;2.1;;
81815;SDS011;71249;52.084;5.304;2024-02-23T11:12:22;5.2;;;1.7;;
81815;SDS011;71249;52.084;5.304;2024-02-23T11:14:02;5.0;;;1.7;;
81815;SDS011;71249;52.084;5.304;2024-02-23T11:15:41;6.5;;;2.0;;
81815;SDS011;71249;52.084;5.304;2024-02-23T11:17:19;5.6;;;1.9;;
81815;SDS011;71249;52.084;5.304;2024-02-23T11:20:41;6.4;;;2.21;;
81815;SDS011;71249;52.084;5.304;2024-02-23T11:22:23;6.0;;;2.0;;
81815;SDS011;71249;52.084;5.304;2024-02-23T11:24:02;6.7;;;2.0;;
81815;SDS011;71249;52.084;5.304;2024-02-23T11:25:40;6.2;;;1.9;;
81815;SDS011;71249;52.084;5.304;2024-02-23T11:28:52;6.2;;;2.21;;
81815;SDS011;71249;52.084;5.304;2024-02-23T11:30:31;6.7;;;1.8;;
81815;SDS011;71249;52.084;5.304;2024-02-23T11:32:12;7.0;;;2.21;;
81815;SDS011;71249;52.084;5.304;2024-02-23T11:33:49;6.5;;;2.4;;
81815;SDS011;71249;52.084;5.304;2024-02-23T11:37:07;5.8;;;1.6;;
81815;SDS011;71249;52.084;5.304;2024-02-23T11:38:45;6.5;;;2.0;;
81815;SDS011;71249;52.084;5.304;2024-02-23T11:40:22;6.7;;;1.9;;
81815;SDS011;71249;52.084;5.304;2024-02-23T11:43:34;5.6;;;2.1;;
81815;SDS011;71249;52.084;5.304;2024-02-23T11:45:11;4.91;;;2.0;;
81815;SDS011;71249;52.084;5.304;2024-02-23T11:46:47;3.6;;;1.7;;
81815;SDS011;71249;52.084;5.304;2024-02-23T11:49:59;4.61;;;1.9;;
81815;SDS011;71249;52.084;5.304;2024-02-23T11:51:38;3.9;;;1.7;;
81815;SDS011;71249;52.084;5.304;2024-02-23T11:53:14;6.4;;;1.7;;
81815;SDS011;71249;52.084;5.304;2024-02-23T11:54:52;6.2;;;1.9;;
81815;SDS011;71249;52.084;5.304;2024-02-23T11:58:06;5.3;;;1.9;;
81815;SDS011;71249;52.084;5.304;2024-02-23T11:59:42;8.6;;;2.31;;
81815;SDS011;71249;52.084;5.304;2024-02-23T12:01:18;5.5;;;1.8;;
81815;SDS011;71249;52.084;5.304;2024-02-23T12:04:30;5.9;;;1.8;;
81815;SDS011;71249;52.084;5.304;2024-02-23T12:06:06;5.0;;;1.9;;
81815;SDS011;71249;52.084;5.304;2024-02-23T12:07:43;6.1;;;2.0;;
81815;SDS011;71249;52.084;5.304;2024-02-23T12:10:56;5.6;;;1.7;;
81815;SDS011;71249;52.084;5.304;2024-02-23T12:12:33;5.6;;;1.9;;
81815;SDS011;71249;52.084;5.304;2024-02-23T12:14:12;7.3;;;2.1;;
81815;SDS011;71249;52.084;5.304;2024-02-23T12:15:51;6.3;;;2.1;;
81815;SDS011;71249;52.084;5.304;2024-02-23T12:19:05;3.2;;;1.4;;
81815;SDS011;71249;52.084;5.304;2024-02-23T12:20:46;6.5;;;2.1;;
81815;SDS011;71249;52.084;5.304;2024-02-23T12:22:24;5.8;;;2.0;;
81815;SDS011;71249;52.084;5.304;2024-02-23T12:27:28;5.7;;;2.21;;
81815;SDS011;71249;52.084;5.304;2024-02-23T12:29:05;5.9;;;1.8;;
81815;SDS011;71249;52.084;5.304;2024-02-23T12:30:42;5.6;;;1.9;;
81815;SDS011;71249;52.084;5.304;2024-02-23T12:33:57;5.8;;;2.0;;
81815;SDS011;71249;52.084;5.304;2024-02-23T12:35:33;6.2;;;1.9;;
81815;SDS011;71249;52.084;5.304;2024-02-23T12:37:10;6.1;;;1.9;;
81815;SDS011;71249;52.084;5.304;2024-02-23T12:38:47;4.8;;;1.5;;
81815;SDS011;71249;52.084;5.304;2024-02-23T12:41:59;6.2;;;1.7;;
81815;SDS011;71249;52.084;5.304;2024-02-23T12:43:36;5.11;;;1.7;;
81815;SDS011;71249;52.084;5.304;2024-02-23T12:45:12;6.5;;;1.9;;
81815;SDS011;71249;52.084;5.304;2024-02-23T12:48:24;3.3;;;1.5;;
81815;SDS011;71249;52.084;5.304;2024-02-23T12:50:01;6.6;;;2.0;;
81815;SDS011;71249;52.084;5.304;2024-02-23T12:51:36;6.2;;;1.8;;
81815;SDS011;71249;52.084;5.304;2024-02-23T12:55:07;6.2;;;1.8;;
81815;SDS011;71249;52.084;5.304;2024-02-23T12:56:44;11.9;;;2.21;;